sensor_id;sensor_type;location;lat;lon;timestamp;P1;durP1;ratioP1;P2;durP2;ratioP2
41233;SDS011;26968;42.686;23.352;2023-05-13T00:02:24;6.70;;;3.70;;
41233;SDS011;26968;42.686;23.352;2023-05-13T00:04:49;6.90;;;4.20;;
41233;SDS011;26968;42.686;23.352;2023-05-13T00:07:15;10.88;;;3.40;;
41233;SDS011;26968;42.686;23.352;2023-05-13T00:09:40;8.98;;;3.25;;
41233;SDS011;26968;42.686;23.352;2023-05-13T00:12:06;6.97;;;3.70;;
41233;SDS011;26968;42.686;23.352;2023-05-13T00:14:31;6.75;;;3.40;;
41233;SDS011;26968;42.686;23.352;2023-05-13T00:16:57;6.05;;;3.35;;
41233;SDS011;26968;42.686;23.352;2023-05-13T00:19:23;7.35;;;3.20;;
41233;SDS011;26968;42.686;23.352;2023-05-13T00:21:49;7.10;;;3.00;;
41233;SDS011;26968;42.686;23.352;2023-05-13T00:24:14;5.38;;;2.97;;
41233;SDS011;26968;42.686;23.352;2023-05-13T00:26:40;5.25;;;2.85;;
41233;SDS011;26968;42.686;23.352;2023-05-13T00:29:05;8.30;;;2.90;;
41233;SDS011;26968;42.686;23.352;2023-05-13T00:31:31;6.22;;;3.25;;
41233;SDS011;26968;42.686;23.352;2023-05-13T00:33:56;4.32;;;2.35;;
41233;SDS011;26968;42.686;23.352;2023-05-13T00:36:22;8.27;;;2.63;;
41233;SDS011;26968;42.686;23.352;2023-05-13T00:38:48;6.05;;;2.67;;
41233;SDS011;26968;42.686;23.352;2023-05-13T00:41:13;8.82;;;2.85;;
41233;SDS011;26968;42.686;23.352;2023-05-13T00:43:39;8.40;;;3.00;;
41233;SDS011;26968;42.686;23.352;2023-05-13T00:46:04;8.88;;;3.45;;
41233;SDS011;26968;42.686;23.352;2023-05-13T00:48:30;7.80;;;2.95;;
41233;SDS011;26968;42.686;23.352;2023-05-13T00:50:57;5.00;;;2.92;;
41233;SDS011;26968;42.686;23.352;2023-05-13T00:53:23;6.65;;;2.40;;
41233;SDS011;26968;42.686;23.352;2023-05-13T00:55:49;3.63;;;2.40;;
41233;SDS011;26968;42.686;23.352;2023-05-13T00:58:14;7.38;;;3.40;;
41233;SDS011;26968;42.686;23.352;2023-05-13T01:12:10;5.10;;;2.63;;
41233;SDS011;26968;42.686;23.352;2023-05-13T01:14:41;2.97;;;2.35;;
41233;SDS011;26968;42.686;23.352;2023-05-13T01:17:17;5.60;;;2.50;;
41233;SDS011;26968;42.686;23.352;2023-05-13T01:19:54;5.63;;;2.90;;
41233;SDS011;26968;42.686;23.352;2023-05-13T01:22:21;6.40;;;2.90;;
41233;SDS011;26968;42.686;23.352;2023-05-13T01:24:47;4.25;;;2.70;;
41233;SDS011;26968;42.686;23.352;2023-05-13T01:27:14;4.75;;;2.40;;
41233;SDS011;26968;42.686;23.352;2023-05-13T01:29:40;6.03;;;2.95;;
41233;SDS011;26968;42.686;23.352;2023-05-13T01:32:06;4.50;;;2.28;;
41233;SDS011;26968;42.686;23.352;2023-05-13T01:34:35;9.80;;;2.90;;
41233;SDS011;26968;42.686;23.352;2023-05-13T01:37:02;4.82;;;2.47;;
41233;SDS011;26968;42.686;23.352;2023-05-13T01:39:28;14.07;;;3.08;;
41233;SDS011;26968;42.686;23.352;2023-05-13T01:41:55;7.13;;;2.50;;
41233;SDS011;26968;42.686;23.352;2023-05-13T01:44:21;3.67;;;2.65;;
41233;SDS011;26968;42.686;23.352;2023-05-13T01:46:47;4.10;;;2.53;;
41233;SDS011;26968;42.686;23.352;2023-05-13T01:49:14;4.05;;;2.60;;
41233;SDS011;26968;42.686;23.352;2023-05-13T01:51:40;6.47;;;2.88;;
41233;SDS011;26968;42.686;23.352;2023-05-13T01:54:05;3.67;;;2.22;;
41233;SDS011;26968;42.686;23.352;2023-05-13T01:56:31;3.58;;;2.58;;
41233;SDS011;26968;42.686;23.352;2023-05-13T01:58:56;6.05;;;2.80;;
41233;SDS011;26968;42.686;23.352;2023-05-13T02:01:22;6.07;;;2.88;;
41233;SDS011;26968;42.686;23.352;2023-05-13T02:03:48;3.65;;;2.35;;
41233;SDS011;26968;42.686;23.352;2023-05-13T02:06:13;5.18;;;2.97;;
41233;SDS011;26968;42.686;23.352;2023-05-13T02:08:39;7.13;;;2.92;;
41233;SDS011;26968;42.686;23.352;2023-05-13T02:11:04;4.15;;;2.70;;
41233;SDS011;26968;42.686;23.352;2023-05-13T02:13:30;7.75;;;3.42;;
41233;SDS011;26968;42.686;23.352;2023-05-13T02:15:55;6.57;;;2.25;;
41233;SDS011;26968;42.686;23.352;2023-05-13T02:18:21;4.40;;;2.40;;
41233;SDS011;26968;42.686;23.352;2023-05-13T02:20:46;3.53;;;2.60;;
41233;SDS011;26968;42.686;23.352;2023-05-13T02:23:12;5.05;;;2.65;;
41233;SDS011;26968;42.686;23.352;2023-05-13T02:25:38;3.90;;;2.53;;
41233;SDS011;26968;42.686;23.352;2023-05-13T02:28:04;5.45;;;2.22;;
41233;SDS011;26968;42.686;23.352;2023-05-13T02:30:30;5.38;;;3.10;;
41233;SDS011;26968;42.686;23.352;2023-05-13T02:32:56;3.10;;;2.30;;
41233;SDS011;26968;42.686;23.352;2023-05-13T02:35:21;3.92;;;2.55;;
41233;SDS011;26968;42.686;23.352;2023-05-13T02:37:48;6.68;;;2.90;;
41233;SDS011;26968;42.686;23.352;2023-05-13T02:40:14;6.13;;;2.58;;
41233;SDS011;26968;42.686;23.352;2023-05-13T02:42:39;5.93;;;2.97;;
41233;SDS011;26968;42.686;23.352;2023-05-13T02:45:05;7.53;;;2.72;;
41233;SDS011;26968;42.686;23.352;2023-05-13T02:47:31;5.28;;;2.72;;
41233;SDS011;26968;42.686;23.352;2023-05-13T02:49:57;13.13;;;2.63;;
41233;SDS011;26968;42.686;23.352;2023-05-13T02:52:22;4.82;;;2.95;;
41233;SDS011;26968;42.686;23.352;2023-05-13T02:54:48;7.90;;;3.10;;
41233;SDS011;26968;42.686;23.352;2023-05-13T02:57:13;9.32;;;3.75;;
41233;SDS011;26968;42.686;23.352;2023-05-13T02:59:39;7.63;;;3.55;;
41233;SDS011;26968;42.686;23.352;2023-05-13T03:02:04;5.75;;;3.38;;
41233;SDS011;26968;42.686;23.352;2023-05-13T03:04:30;4.70;;;3.10;;
41233;SDS011;26968;42.686;23.352;2023-05-13T03:06:55;5.00;;;3.10;;
41233;SDS011;26968;42.686;23.352;2023-05-13T03:09:20;8.38;;;3.25;;
41233;SDS011;26968;42.686;23.352;2023-05-13T03:11:46;7.57;;;3.55;;
41233;SDS011;26968;42.686;23.352;2023-05-13T03:14:11;6.25;;;3.13;;
41233;SDS011;26968;42.686;23.352;2023-05-13T03:16:37;7.65;;;3.13;;
41233;SDS011;26968;42.686;23.352;2023-05-13T03:19:02;5.85;;;3.63;;
41233;SDS011;26968;42.686;23.352;2023-05-13T03:21:27;7.43;;;3.67;;
41233;SDS011;26968;42.686;23.352;2023-05-13T03:23:53;9.63;;;3.42;;
41233;SDS011;26968;42.686;23.352;2023-05-13T03:26:18;8.63;;;3.70;;
41233;SDS011;26968;42.686;23.352;2023-05-13T03:28:45;8.70;;;3.92;;
41233;SDS011;26968;42.686;23.352;2023-05-13T03:31:11;11.13;;;4.68;;
41233;SDS011;26968;42.686;23.352;2023-05-13T03:33:36;10.18;;;4.93;;
41233;SDS011;26968;42.686;23.352;2023-05-13T03:36:02;11.38;;;5.50;;
41233;SDS011;26968;42.686;23.352;2023-05-13T03:38:28;12.35;;;5.47;;
41233;SDS011;26968;42.686;23.352;2023-05-13T03:40:54;14.20;;;6.35;;
41233;SDS011;26968;42.686;23.352;2023-05-13T03:43:19;13.85;;;6.05;;
41233;SDS011;26968;42.686;23.352;2023-05-13T03:45:44;15.18;;;6.53;;
41233;SDS011;26968;42.686;23.352;2023-05-13T03:48:12;11.85;;;5.72;;
41233;SDS011;26968;42.686;23.352;2023-05-13T03:50:37;13.50;;;6.65;;
41233;SDS011;26968;42.686;23.352;2023-05-13T03:53:03;13.05;;;6.00;;
41233;SDS011;26968;42.686;23.352;2023-05-13T03:55:29;17.08;;;7.22;;
41233;SDS011;26968;42.686;23.352;2023-05-13T03:57:54;15.80;;;7.32;;
41233;SDS011;26968;42.686;23.352;2023-05-13T04:00:20;20.63;;;7.50;;
41233;SDS011;26968;42.686;23.352;2023-05-13T04:02:45;20.63;;;7.60;;
41233;SDS011;26968;42.686;23.352;2023-05-13T04:05:10;19.88;;;6.50;;
41233;SDS011;26968;42.686;23.352;2023-05-13T04:07:37;14.20;;;5.85;;
41233;SDS011;26968;42.686;23.352;2023-05-13T04:10:03;12.35;;;5.40;;
41233;SDS011;26968;42.686;23.352;2023-05-13T04:12:29;10.80;;;4.82;;
41233;SDS011;26968;42.686;23.352;2023-05-13T04:14:55;9.30;;;4.38;;
41233;SDS011;26968;42.686;23.352;2023-05-13T04:17:20;10.15;;;4.78;;
41233;SDS011;26968;42.686;23.352;2023-05-13T04:19:46;8.35;;;4.47;;
41233;SDS011;26968;42.686;23.352;2023-05-13T04:22:11;9.73;;;4.35;;
41233;SDS011;26968;42.686;23.352;2023-05-13T04:24:36;8.38;;;3.90;;
41233;SDS011;26968;42.686;23.352;2023-05-13T04:27:02;9.95;;;4.75;;
41233;SDS011;26968;42.686;23.352;2023-05-13T04:29:28;7.93;;;4.38;;
41233;SDS011;26968;42.686;23.352;2023-05-13T04:31:53;8.00;;;3.75;;
41233;SDS011;26968;42.686;23.352;2023-05-13T04:34:18;6.82;;;4.18;;
41233;SDS011;26968;42.686;23.352;2023-05-13T04:36:44;11.38;;;4.32;;
41233;SDS011;26968;42.686;23.352;2023-05-13T04:39:10;9.43;;;3.63;;
41233;SDS011;26968;42.686;23.352;2023-05-13T04:41:36;10.25;;;4.25;;
41233;SDS011;26968;42.686;23.352;2023-05-13T04:44:01;8.32;;;3.75;;
41233;SDS011;26968;42.686;23.352;2023-05-13T04:46:27;11.80;;;4.38;;
41233;SDS011;26968;42.686;23.352;2023-05-13T04:48:52;6.55;;;3.97;;
41233;SDS011;26968;42.686;23.352;2023-05-13T04:51:17;7.40;;;3.22;;
41233;SDS011;26968;42.686;23.352;2023-05-13T04:53:43;9.77;;;4.90;;
41233;SDS011;26968;42.686;23.352;2023-05-13T04:56:08;7.75;;;3.15;;
41233;SDS011;26968;42.686;23.352;2023-05-13T04:58:34;9.27;;;4.30;;
41233;SDS011;26968;42.686;23.352;2023-05-13T05:01:00;13.40;;;4.20;;
41233;SDS011;26968;42.686;23.352;2023-05-13T05:03:25;6.75;;;4.32;;
41233;SDS011;26968;42.686;23.352;2023-05-13T05:05:51;7.18;;;4.40;;
41233;SDS011;26968;42.686;23.352;2023-05-13T05:08:16;8.50;;;4.22;;
41233;SDS011;26968;42.686;23.352;2023-05-13T05:10:42;13.13;;;4.82;;
41233;SDS011;26968;42.686;23.352;2023-05-13T05:13:08;13.85;;;5.20;;
41233;SDS011;26968;42.686;23.352;2023-05-13T05:15:34;13.82;;;4.60;;
41233;SDS011;26968;42.686;23.352;2023-05-13T05:17:59;10.93;;;4.40;;
41233;SDS011;26968;42.686;23.352;2023-05-13T05:20:25;8.77;;;3.80;;
41233;SDS011;26968;42.686;23.352;2023-05-13T05:22:50;7.55;;;3.97;;
41233;SDS011;26968;42.686;23.352;2023-05-13T05:25:16;8.02;;;4.15;;
41233;SDS011;26968;42.686;23.352;2023-05-13T05:27:41;7.68;;;4.00;;
41233;SDS011;26968;42.686;23.352;2023-05-13T05:30:07;6.72;;;4.20;;
41233;SDS011;26968;42.686;23.352;2023-05-13T05:32:34;8.43;;;4.25;;
41233;SDS011;26968;42.686;23.352;2023-05-13T05:35:00;8.40;;;4.85;;
41233;SDS011;26968;42.686;23.352;2023-05-13T05:37:26;8.00;;;4.60;;
41233;SDS011;26968;42.686;23.352;2023-05-13T05:39:53;13.57;;;5.57;;
41233;SDS011;26968;42.686;23.352;2023-05-13T05:42:18;7.55;;;4.15;;
41233;SDS011;26968;42.686;23.352;2023-05-13T05:44:43;12.07;;;4.22;;
41233;SDS011;26968;42.686;23.352;2023-05-13T05:47:09;9.30;;;3.63;;
41233;SDS011;26968;42.686;23.352;2023-05-13T05:49:34;6.00;;;3.67;;
41233;SDS011;26968;42.686;23.352;2023-05-13T05:52:00;11.48;;;4.38;;
41233;SDS011;26968;42.686;23.352;2023-05-13T05:54:26;7.55;;;3.70;;
41233;SDS011;26968;42.686;23.352;2023-05-13T05:56:52;6.10;;;3.35;;
41233;SDS011;26968;42.686;23.352;2023-05-13T05:59:17;13.23;;;3.53;;
41233;SDS011;26968;42.686;23.352;2023-05-13T06:01:42;9.73;;;4.00;;
41233;SDS011;26968;42.686;23.352;2023-05-13T06:04:08;8.57;;;4.32;;
41233;SDS011;26968;42.686;23.352;2023-05-13T06:06:33;12.48;;;4.72;;
41233;SDS011;26968;42.686;23.352;2023-05-13T06:09:00;10.60;;;4.38;;
41233;SDS011;26968;42.686;23.352;2023-05-13T06:11:26;14.40;;;4.70;;
41233;SDS011;26968;42.686;23.352;2023-05-13T06:13:52;18.38;;;5.40;;
41233;SDS011;26968;42.686;23.352;2023-05-13T06:16:18;15.43;;;5.88;;
41233;SDS011;26968;42.686;23.352;2023-05-13T06:18:43;16.38;;;5.65;;
41233;SDS011;26968;42.686;23.352;2023-05-13T06:21:08;11.38;;;4.65;;
41233;SDS011;26968;42.686;23.352;2023-05-13T06:23:34;13.18;;;4.15;;
41233;SDS011;26968;42.686;23.352;2023-05-13T06:25:59;14.00;;;4.88;;
41233;SDS011;26968;42.686;23.352;2023-05-13T06:28:25;18.13;;;4.57;;
41233;SDS011;26968;42.686;23.352;2023-05-13T06:30:50;11.77;;;3.85;;
41233;SDS011;26968;42.686;23.352;2023-05-13T06:33:16;9.88;;;3.13;;
41233;SDS011;26968;42.686;23.352;2023-05-13T06:35:41;8.40;;;3.70;;
41233;SDS011;26968;42.686;23.352;2023-05-13T06:38:11;9.05;;;3.95;;
41233;SDS011;26968;42.686;23.352;2023-05-13T06:40:38;5.35;;;3.25;;
41233;SDS011;26968;42.686;23.352;2023-05-13T06:43:03;8.43;;;3.08;;
41233;SDS011;26968;42.686;23.352;2023-05-13T06:45:29;12.88;;;3.50;;
41233;SDS011;26968;42.686;23.352;2023-05-13T06:47:54;10.80;;;3.30;;
41233;SDS011;26968;42.686;23.352;2023-05-13T06:50:20;4.15;;;2.40;;
41233;SDS011;26968;42.686;23.352;2023-05-13T06:52:46;6.10;;;3.05;;
41233;SDS011;26968;42.686;23.352;2023-05-13T06:55:11;9.32;;;3.22;;
41233;SDS011;26968;42.686;23.352;2023-05-13T06:57:37;9.30;;;2.83;;
41233;SDS011;26968;42.686;23.352;2023-05-13T07:00:04;10.02;;;3.10;;
41233;SDS011;26968;42.686;23.352;2023-05-13T07:02:29;5.65;;;2.67;;
41233;SDS011;26968;42.686;23.352;2023-05-13T07:04:55;7.97;;;3.22;;
41233;SDS011;26968;42.686;23.352;2023-05-13T07:07:20;4.93;;;2.67;;
41233;SDS011;26968;42.686;23.352;2023-05-13T07:09:46;5.18;;;2.80;;
41233;SDS011;26968;42.686;23.352;2023-05-13T07:12:11;11.27;;;3.33;;
41233;SDS011;26968;42.686;23.352;2023-05-13T07:14:37;12.80;;;3.63;;
41233;SDS011;26968;42.686;23.352;2023-05-13T07:17:03;9.70;;;3.25;;
41233;SDS011;26968;42.686;23.352;2023-05-13T07:19:29;9.32;;;3.53;;
41233;SDS011;26968;42.686;23.352;2023-05-13T07:21:54;8.68;;;3.70;;
41233;SDS011;26968;42.686;23.352;2023-05-13T07:24:20;4.20;;;2.35;;
41233;SDS011;26968;42.686;23.352;2023-05-13T07:26:45;7.03;;;2.90;;
41233;SDS011;26968;42.686;23.352;2023-05-13T07:29:11;5.72;;;3.10;;
41233;SDS011;26968;42.686;23.352;2023-05-13T07:31:36;6.28;;;3.72;;
41233;SDS011;26968;42.686;23.352;2023-05-13T07:34:02;9.00;;;3.55;;
41233;SDS011;26968;42.686;23.352;2023-05-13T07:36:27;6.97;;;3.78;;
41233;SDS011;26968;42.686;23.352;2023-05-13T07:38:53;16.27;;;4.43;;
41233;SDS011;26968;42.686;23.352;2023-05-13T07:41:18;11.55;;;4.57;;
41233;SDS011;26968;42.686;23.352;2023-05-13T07:43:44;7.32;;;3.70;;
41233;SDS011;26968;42.686;23.352;2023-05-13T07:46:09;8.40;;;3.67;;
41233;SDS011;26968;42.686;23.352;2023-05-13T07:48:34;12.77;;;4.60;;
41233;SDS011;26968;42.686;23.352;2023-05-13T07:51:00;20.15;;;5.75;;
41233;SDS011;26968;42.686;23.352;2023-05-13T07:53:25;9.27;;;5.43;;
41233;SDS011;26968;42.686;23.352;2023-05-13T07:55:51;13.68;;;6.32;;
41233;SDS011;26968;42.686;23.352;2023-05-13T07:58:16;10.48;;;6.07;;
41233;SDS011;26968;42.686;23.352;2023-05-13T08:00:42;9.38;;;5.68;;
41233;SDS011;26968;42.686;23.352;2023-05-13T08:03:08;12.32;;;5.22;;
41233;SDS011;26968;42.686;23.352;2023-05-13T08:05:33;9.05;;;5.53;;
41233;SDS011;26968;42.686;23.352;2023-05-13T08:07:59;12.43;;;6.18;;
41233;SDS011;26968;42.686;23.352;2023-05-13T08:10:25;18.02;;;5.28;;
41233;SDS011;26968;42.686;23.352;2023-05-13T08:12:51;10.48;;;4.82;;
41233;SDS011;26968;42.686;23.352;2023-05-13T08:15:21;10.50;;;4.28;;
41233;SDS011;26968;42.686;23.352;2023-05-13T08:17:47;13.95;;;5.40;;
41233;SDS011;26968;42.686;23.352;2023-05-13T08:20:13;12.70;;;5.45;;
41233;SDS011;26968;42.686;23.352;2023-05-13T08:22:39;9.57;;;5.47;;
41233;SDS011;26968;42.686;23.352;2023-05-13T08:25:05;8.90;;;5.63;;
41233;SDS011;26968;42.686;23.352;2023-05-13T08:27:30;9.68;;;5.50;;
41233;SDS011;26968;42.686;23.352;2023-05-13T08:29:56;14.13;;;5.82;;
41233;SDS011;26968;42.686;23.352;2023-05-13T08:32:21;17.55;;;6.22;;
41233;SDS011;26968;42.686;23.352;2023-05-13T08:34:47;12.52;;;6.40;;
41233;SDS011;26968;42.686;23.352;2023-05-13T08:37:12;11.77;;;5.60;;
41233;SDS011;26968;42.686;23.352;2023-05-13T08:39:37;9.00;;;5.97;;
41233;SDS011;26968;42.686;23.352;2023-05-13T08:42:03;11.52;;;5.97;;
41233;SDS011;26968;42.686;23.352;2023-05-13T08:44:32;12.98;;;6.80;;
41233;SDS011;26968;42.686;23.352;2023-05-13T08:47:07;15.63;;;7.43;;
41233;SDS011;26968;42.686;23.352;2023-05-13T08:50:15;11.07;;;6.38;;
41233;SDS011;26968;42.686;23.352;2023-05-13T08:52:41;15.15;;;7.82;;
41233;SDS011;26968;42.686;23.352;2023-05-13T08:55:07;13.52;;;6.82;;
41233;SDS011;26968;42.686;23.352;2023-05-13T08:57:33;14.10;;;7.70;;
41233;SDS011;26968;42.686;23.352;2023-05-13T08:59:59;19.38;;;8.02;;
41233;SDS011;26968;42.686;23.352;2023-05-13T09:02:24;10.30;;;7.18;;
41233;SDS011;26968;42.686;23.352;2023-05-13T09:04:51;16.45;;;8.77;;
41233;SDS011;26968;42.686;23.352;2023-05-13T09:07:18;17.55;;;7.00;;
41233;SDS011;26968;42.686;23.352;2023-05-13T09:09:44;12.50;;;6.70;;
41233;SDS011;26968;42.686;23.352;2023-05-13T09:12:09;9.85;;;6.55;;
41233;SDS011;26968;42.686;23.352;2023-05-13T09:14:35;14.00;;;7.70;;
41233;SDS011;26968;42.686;23.352;2023-05-13T09:17:02;15.63;;;6.85;;
41233;SDS011;26968;42.686;23.352;2023-05-13T09:19:28;9.93;;;6.25;;
41233;SDS011;26968;42.686;23.352;2023-05-13T09:21:53;11.38;;;6.25;;
41233;SDS011;26968;42.686;23.352;2023-05-13T09:24:21;11.15;;;6.72;;
41233;SDS011;26968;42.686;23.352;2023-05-13T09:26:47;11.63;;;6.68;;
41233;SDS011;26968;42.686;23.352;2023-05-13T09:29:21;12.52;;;6.93;;
41233;SDS011;26968;42.686;23.352;2023-05-13T09:31:51;12.00;;;7.30;;
41233;SDS011;26968;42.686;23.352;2023-05-13T09:34:25;25.95;;;7.05;;
41233;SDS011;26968;42.686;23.352;2023-05-13T09:36:56;14.30;;;7.60;;
41233;SDS011;26968;42.686;23.352;2023-05-13T09:39:30;22.05;;;7.47;;
41233;SDS011;26968;42.686;23.352;2023-05-13T09:41:57;16.10;;;7.03;;
41233;SDS011;26968;42.686;23.352;2023-05-13T09:44:24;10.82;;;6.95;;
41233;SDS011;26968;42.686;23.352;2023-05-13T09:46:50;11.65;;;6.38;;
41233;SDS011;26968;42.686;23.352;2023-05-13T09:49:19;14.15;;;5.63;;
41233;SDS011;26968;42.686;23.352;2023-05-13T09:51:46;13.68;;;5.97;;
41233;SDS011;26968;42.686;23.352;2023-05-13T09:54:12;13.90;;;6.40;;
41233;SDS011;26968;42.686;23.352;2023-05-13T09:56:37;17.35;;;7.03;;
41233;SDS011;26968;42.686;23.352;2023-05-13T09:59:03;11.23;;;5.63;;
41233;SDS011;26968;42.686;23.352;2023-05-13T10:01:28;12.32;;;6.00;;
41233;SDS011;26968;42.686;23.352;2023-05-13T10:03:54;9.38;;;5.80;;
41233;SDS011;26968;42.686;23.352;2023-05-13T10:06:24;10.10;;;5.72;;
41233;SDS011;26968;42.686;23.352;2023-05-13T10:08:57;9.25;;;5.35;;
41233;SDS011;26968;42.686;23.352;2023-05-13T10:11:25;9.13;;;5.72;;
41233;SDS011;26968;42.686;23.352;2023-05-13T10:13:54;9.40;;;5.55;;
41233;SDS011;26968;42.686;23.352;2023-05-13T10:16:23;10.35;;;5.03;;
41233;SDS011;26968;42.686;23.352;2023-05-13T10:18:49;11.82;;;5.20;;
41233;SDS011;26968;42.686;23.352;2023-05-13T10:21:15;9.65;;;5.07;;
41233;SDS011;26968;42.686;23.352;2023-05-13T10:23:43;6.40;;;4.32;;
41233;SDS011;26968;42.686;23.352;2023-05-13T10:26:11;6.15;;;4.53;;
41233;SDS011;26968;42.686;23.352;2023-05-13T10:28:37;8.18;;;4.68;;
41233;SDS011;26968;42.686;23.352;2023-05-13T10:31:03;10.40;;;4.50;;
41233;SDS011;26968;42.686;23.352;2023-05-13T10:33:28;6.00;;;3.97;;
41233;SDS011;26968;42.686;23.352;2023-05-13T10:41:29;10.95;;;5.78;;
41233;SDS011;26968;42.686;23.352;2023-05-13T10:44:14;7.15;;;5.40;;
41233;SDS011;26968;42.686;23.352;2023-05-13T10:46:41;8.90;;;5.75;;
41233;SDS011;26968;42.686;23.352;2023-05-13T10:49:07;8.57;;;5.40;;
41233;SDS011;26968;42.686;23.352;2023-05-13T10:51:43;9.88;;;5.68;;
41233;SDS011;26968;42.686;23.352;2023-05-13T10:54:17;11.10;;;5.43;;
41233;SDS011;26968;42.686;23.352;2023-05-13T10:56:56;10.57;;;5.60;;
41233;SDS011;26968;42.686;23.352;2023-05-13T10:59:22;10.45;;;5.88;;
41233;SDS011;26968;42.686;23.352;2023-05-13T11:01:47;12.40;;;5.75;;
41233;SDS011;26968;42.686;23.352;2023-05-13T11:04:14;10.70;;;5.30;;
41233;SDS011;26968;42.686;23.352;2023-05-13T11:06:45;8.35;;;5.93;;
41233;SDS011;26968;42.686;23.352;2023-05-13T11:09:12;8.23;;;5.40;;
41233;SDS011;26968;42.686;23.352;2023-05-13T11:11:47;11.15;;;5.82;;
41233;SDS011;26968;42.686;23.352;2023-05-13T11:14:20;10.07;;;6.03;;
41233;SDS011;26968;42.686;23.352;2023-05-13T11:16:47;11.68;;;6.05;;
41233;SDS011;26968;42.686;23.352;2023-05-13T11:19:27;11.98;;;6.18;;
41233;SDS011;26968;42.686;23.352;2023-05-13T11:21:57;8.52;;;5.57;;
41233;SDS011;26968;42.686;23.352;2023-05-13T11:24:29;9.18;;;5.82;;
41233;SDS011;26968;42.686;23.352;2023-05-13T11:26:56;7.43;;;5.47;;
41233;SDS011;26968;42.686;23.352;2023-05-13T11:31:56;9.75;;;6.10;;
41233;SDS011;26968;42.686;23.352;2023-05-13T11:34:22;9.88;;;5.53;;
41233;SDS011;26968;42.686;23.352;2023-05-13T11:36:50;7.65;;;4.80;;
41233;SDS011;26968;42.686;23.352;2023-05-13T11:39:20;9.32;;;5.43;;
41233;SDS011;26968;42.686;23.352;2023-05-13T11:41:50;18.45;;;5.57;;
41233;SDS011;26968;42.686;23.352;2023-05-13T11:44:18;10.65;;;5.38;;
41233;SDS011;26968;42.686;23.352;2023-05-13T11:47:19;11.65;;;5.40;;
41233;SDS011;26968;42.686;23.352;2023-05-13T11:49:45;8.15;;;4.68;;
41233;SDS011;26968;42.686;23.352;2023-05-13T11:52:15;11.65;;;4.72;;
41233;SDS011;26968;42.686;23.352;2023-05-13T11:54:49;10.63;;;4.95;;
41233;SDS011;26968;42.686;23.352;2023-05-13T11:57:29;7.53;;;4.53;;
41233;SDS011;26968;42.686;23.352;2023-05-13T12:02:37;5.88;;;4.28;;
41233;SDS011;26968;42.686;23.352;2023-05-13T12:05:07;14.48;;;4.93;;
41233;SDS011;26968;42.686;23.352;2023-05-13T12:07:34;8.68;;;4.57;;
41233;SDS011;26968;42.686;23.352;2023-05-13T12:10:00;6.55;;;4.63;;
41233;SDS011;26968;42.686;23.352;2023-05-13T12:12:28;6.95;;;3.85;;
41233;SDS011;26968;42.686;23.352;2023-05-13T12:14:54;9.35;;;4.43;;
41233;SDS011;26968;42.686;23.352;2023-05-13T12:17:22;8.95;;;4.15;;
41233;SDS011;26968;42.686;23.352;2023-05-13T12:28:10;7.22;;;3.63;;
41233;SDS011;26968;42.686;23.352;2023-05-13T12:30:38;14.18;;;4.10;;
41233;SDS011;26968;42.686;23.352;2023-05-13T12:33:12;11.18;;;3.63;;
41233;SDS011;26968;42.686;23.352;2023-05-13T12:35:42;7.25;;;3.97;;
41233;SDS011;26968;42.686;23.352;2023-05-13T12:38:12;7.07;;;4.22;;
41233;SDS011;26968;42.686;23.352;2023-05-13T12:40:39;5.07;;;3.17;;
41233;SDS011;26968;42.686;23.352;2023-05-13T12:43:04;6.43;;;3.50;;
41233;SDS011;26968;42.686;23.352;2023-05-13T12:45:30;6.60;;;3.40;;
41233;SDS011;26968;42.686;23.352;2023-05-13T12:47:57;9.98;;;3.78;;
41233;SDS011;26968;42.686;23.352;2023-05-13T12:50:24;6.95;;;3.58;;
41233;SDS011;26968;42.686;23.352;2023-05-13T12:52:50;8.25;;;3.53;;
41233;SDS011;26968;42.686;23.352;2023-05-13T12:55:17;4.70;;;3.30;;
41233;SDS011;26968;42.686;23.352;2023-05-13T12:57:42;11.52;;;4.00;;
41233;SDS011;26968;42.686;23.352;2023-05-13T13:00:18;5.18;;;3.30;;
41233;SDS011;26968;42.686;23.352;2023-05-13T13:02:44;10.30;;;3.95;;
41233;SDS011;26968;42.686;23.352;2023-05-13T13:05:09;5.75;;;3.67;;
41233;SDS011;26968;42.686;23.352;2023-05-13T13:07:35;7.93;;;3.83;;
41233;SDS011;26968;42.686;23.352;2023-05-13T13:10:02;6.68;;;3.67;;
41233;SDS011;26968;42.686;23.352;2023-05-13T13:12:31;8.77;;;3.97;;
41233;SDS011;26968;42.686;23.352;2023-05-13T13:14:56;9.23;;;3.55;;
41233;SDS011;26968;42.686;23.352;2023-05-13T13:17:22;6.75;;;3.72;;
41233;SDS011;26968;42.686;23.352;2023-05-13T13:19:47;10.00;;;3.55;;
41233;SDS011;26968;42.686;23.352;2023-05-13T13:22:13;9.63;;;4.20;;
41233;SDS011;26968;42.686;23.352;2023-05-13T13:24:39;5.55;;;3.17;;
41233;SDS011;26968;42.686;23.352;2023-05-13T13:27:05;12.65;;;3.10;;
41233;SDS011;26968;42.686;23.352;2023-05-13T13:29:30;7.55;;;3.40;;
41233;SDS011;26968;42.686;23.352;2023-05-13T13:31:56;7.43;;;4.10;;
41233;SDS011;26968;42.686;23.352;2023-05-13T13:34:23;9.05;;;4.07;;
41233;SDS011;26968;42.686;23.352;2023-05-13T13:36:48;7.65;;;4.30;;
41233;SDS011;26968;42.686;23.352;2023-05-13T13:39:13;12.02;;;4.75;;
41233;SDS011;26968;42.686;23.352;2023-05-13T13:41:39;7.88;;;3.90;;
41233;SDS011;26968;42.686;23.352;2023-05-13T13:44:04;5.43;;;4.03;;
41233;SDS011;26968;42.686;23.352;2023-05-13T13:46:30;7.68;;;3.42;;
41233;SDS011;26968;42.686;23.352;2023-05-13T13:48:55;8.25;;;4.00;;
41233;SDS011;26968;42.686;23.352;2023-05-13T13:51:20;11.93;;;3.88;;
41233;SDS011;26968;42.686;23.352;2023-05-13T13:53:47;10.38;;;4.28;;
41233;SDS011;26968;42.686;23.352;2023-05-13T13:56:13;8.77;;;3.80;;
41233;SDS011;26968;42.686;23.352;2023-05-13T13:58:38;7.85;;;3.63;;
41233;SDS011;26968;42.686;23.352;2023-05-13T14:01:04;9.15;;;3.95;;
41233;SDS011;26968;42.686;23.352;2023-05-13T14:03:30;8.88;;;4.15;;
41233;SDS011;26968;42.686;23.352;2023-05-13T14:05:55;8.98;;;3.85;;
41233;SDS011;26968;42.686;23.352;2023-05-13T14:08:21;5.75;;;3.60;;
41233;SDS011;26968;42.686;23.352;2023-05-13T14:10:46;7.30;;;4.00;;
41233;SDS011;26968;42.686;23.352;2023-05-13T14:13:12;7.80;;;3.28;;
41233;SDS011;26968;42.686;23.352;2023-05-13T14:15:37;7.55;;;3.47;;
41233;SDS011;26968;42.686;23.352;2023-05-13T14:18:03;7.25;;;3.53;;
41233;SDS011;26968;42.686;23.352;2023-05-13T14:20:31;10.00;;;3.47;;
41233;SDS011;26968;42.686;23.352;2023-05-13T14:22:58;8.50;;;3.90;;
41233;SDS011;26968;42.686;23.352;2023-05-13T14:25:24;10.23;;;3.40;;
41233;SDS011;26968;42.686;23.352;2023-05-13T14:27:49;5.35;;;3.30;;
41233;SDS011;26968;42.686;23.352;2023-05-13T14:30:15;5.25;;;3.67;;
41233;SDS011;26968;42.686;23.352;2023-05-13T14:32:41;11.15;;;4.70;;
41233;SDS011;26968;42.686;23.352;2023-05-13T14:35:10;10.38;;;3.80;;
41233;SDS011;26968;42.686;23.352;2023-05-13T14:37:36;8.50;;;3.65;;
41233;SDS011;26968;42.686;23.352;2023-05-13T14:40:02;6.45;;;3.70;;
41233;SDS011;26968;42.686;23.352;2023-05-13T14:42:28;5.78;;;3.78;;
41233;SDS011;26968;42.686;23.352;2023-05-13T14:44:53;7.28;;;3.65;;
41233;SDS011;26968;42.686;23.352;2023-05-13T14:47:19;5.20;;;3.22;;
41233;SDS011;26968;42.686;23.352;2023-05-13T14:49:44;6.25;;;3.50;;
41233;SDS011;26968;42.686;23.352;2023-05-13T14:52:10;6.35;;;3.90;;
41233;SDS011;26968;42.686;23.352;2023-05-13T14:54:36;8.75;;;4.22;;
41233;SDS011;26968;42.686;23.352;2023-05-13T14:57:02;10.60;;;4.55;;
41233;SDS011;26968;42.686;23.352;2023-05-13T14:59:29;9.25;;;3.72;;